Time;durP1;ratioP1;P1;durP2;ratioP2;P2;SDS_P1;SDS_P2;PMS_P1;PMS_P2;Temp;Humidity;BMP_temperature;BMP_pressure;BME280_temperature;BME280_humidity;BME280_pressure;Samples;Min_cycle;Max_cycle;Signal;HPM_P1;HPM_P2
2021/04/15 00:02:09;;;;;;;19.43;13.17;;;2.50;99.90;;;;;;4896869;29;20294;-86
2021/04/15 00:04:35;;;;;;;18.10;12.57;;;1.30;99.90;;;;;;4898123;29;20662;-86
2021/04/15 00:07:00;;;;;;;22.30;13.80;;;1.40;99.90;;;;;;4888683;29;20194;-85
2021/04/15 00:09:26;;;;;;;20.83;13.23;;;1.30;99.90;;;;;;4905086;29;20200;-85
2021/04/15 00:11:52;;;;;;;21.33;13.80;;;1.30;99.90;;;;;;4905001;29;20174;-91
2021/04/15 00:14:21;;;;;;;20.80;13.53;;;1.30;99.90;;;;;;4895653;29;20710;-86
2021/04/15 00:16:47;;;;;;;19.60;12.50;;;1.30;99.90;;;;;;4880771;29;20296;-86
2021/04/15 00:19:16;;;;;;;20.73;13.77;;;1.30;99.90;;;;;;4881535;29;20212;-86
2021/04/15 00:21:42;;;;;;;18.77;13.13;;;1.50;99.90;;;;;;4882497;29;20183;-86
2021/04/15 00:24:08;;;;;;;21.57;12.97;;;1.30;99.90;;;;;;4881572;29;20181;-86
2021/04/15 00:26:34;;;;;;;20.60;12.83;;;1.30;99.90;;;;;;4880511;29;20195;-86
2021/04/15 00:29:01;;;;;;;19.43;12.67;;;1.30;99.90;;;;;;4881109;29;20259;-86
2021/04/15 00:31:28;;;;;;;21.47;13.53;;;1.30;99.90;;;;;;4880315;29;20184;-86
2021/04/15 00:33:55;;;;;;;18.23;10.90;;;2.10;99.90;;;;;;4881474;29;20205;-86
2021/04/15 00:36:21;;;;;;;18.97;11.70;;;1.30;99.90;;;;;;4881699;29;20242;-85
2021/04/15 00:38:48;;;;;;;21.13;12.93;;;1.30;99.90;;;;;;4896064;29;20182;-85
2021/04/15 00:41:14;;;;;;;20.77;13.23;;;1.40;99.90;;;;;;4881686;29;20578;-85
2021/04/15 00:43:43;;;;;;;18.93;12.03;;;1.30;99.90;;;;;;4881767;29;20184;-85
2021/04/15 00:46:47;;;;;;;19.77;11.60;;;2.10;99.90;;;;;;4881416;29;20190;-86
2021/04/15 00:49:21;;;;;;;20.10;12.57;;;1.30;99.90;;;;;;4880938;29;20178;-85
2021/04/15 00:51:51;;;;;;;18.10;11.77;;;1.40;99.90;;;;;;4881397;29;20718;-85
2021/04/15 00:54:39;;;;;;;21.13;13.27;;;1.30;99.90;;;;;;4881384;29;20186;-85
2021/04/15 00:57:09;;;;;;;17.27;11.27;;;1.30;99.90;;;;;;4880397;29;20224;-85
2021/04/15 00:59:35;;;;;;;19.97;13.27;;;1.40;99.90;;;;;;4881639;29;20197;-86
2021/04/15 01:02:01;;;;;;;19.03;12.70;;;2.20;99.90;;;;;;4880914;29;20189;-85
2021/04/15 01:04:27;;;;;;;18.00;10.73;;;1.30;99.90;;;;;;4880032;29;20547;-85
2021/04/15 01:06:53;;;;;;;17.60;12.10;;;1.40;99.90;;;;;;4881567;29;20184;-85
2021/04/15 01:09:19;;;;;;;20.03;12.73;;;1.40;99.90;;;;;;4895063;29;20190;-85
2021/04/15 01:12:14;;;;;;;18.27;12.80;;;1.70;99.90;;;;;;4894572;29;20186;-85
2021/04/15 01:15:06;;;;;;;18.93;11.90;;;1.30;99.90;;;;;;4880753;29;20188;-85
2021/04/15 01:17:39;;;;;;;18.73;12.03;;;1.40;99.90;;;;;;4878344;29;20206;-86
2021/04/15 01:20:58;;;;;;;18.77;11.30;;;1.30;99.90;;;;;;4878791;29;20174;-86
2021/04/15 01:23:31;;;;;;;21.17;13.57;;;1.40;99.90;;;;;;4860065;29;20188;-86
2021/04/15 01:26:14;;;;;;;19.83;13.20;;;3.00;99.90;;;;;;4878156;29;20194;-86
2021/04/15 01:28:57;;;;;;;20.60;12.33;;;1.30;99.90;;;;;;4879090;29;20237;-86
2021/04/15 01:31:54;;;;;;;19.80;13.43;;;1.40;99.90;;;;;;4879300;29;20192;-86
2021/04/15 01:34:38;;;;;;;20.17;13.50;;;1.40;99.90;;;;;;4878718;29;20199;-86
2021/04/15 01:37:26;;;;;;;19.37;12.23;;;1.40;99.90;;;;;;4879630;29;20284;-85
2021/04/15 01:40:11;;;;;;;20.57;12.03;;;1.40;99.90;;;;;;4880457;29;20210;-86
2021/04/15 01:43:08;;;;;;;19.60;12.30;;;1.40;99.90;;;;;;4880637;29;20672;-85
2021/04/15 01:45:33;;;;;;;21.63;12.87;;;1.40;99.90;;;;;;4879849;29;20661;-85
2021/04/15 01:48:07;;;;;;;17.00;12.53;;;2.00;99.90;;;;;;4894817;29;20186;-86
2021/04/15 01:50:47;;;;;;;19.83;12.23;;;1.40;99.90;;;;;;4880568;29;20186;-85
2021/04/15 01:53:29;;;;;;;20.67;12.37;;;1.50;99.90;;;;;;4878874;29;20277;-85
2021/04/15 01:56:10;;;;;;;20.63;12.87;;;1.40;99.90;;;;;;4880431;29;20267;-85
2021/04/15 01:58:54;;;;;;;20.77;13.43;;;2.60;99.90;;;;;;4880270;29;20174;-85
2021/04/15 02:01:23;;;;;;;22.23;11.77;;;1.40;99.90;;;;;;4879981;29;20184;-85
2021/04/15 02:03:54;;;;;;;21.03;13.07;;;1.50;99.90;;;;;;4880323;29;20181;-85
2021/04/15 02:06:25;;;;;;;18.00;12.20;;;1.50;99.90;;;;;;4878181;29;20205;-85
2021/04/15 02:08:55;;;;;;;21.50;12.83;;;1.40;99.90;;;;;;4880061;29;20189;-85
2021/04/15 02:11:33;;;;;;;19.17;12.30;;;1.50;99.90;;;;;;4879565;29;20640;-86
2021/04/15 02:14:02;;;;;;;20.03;12.87;;;1.50;99.90;;;;;;4879830;29;20185;-86
2021/04/15 02:16:32;;;;;;;20.33;13.67;;;2.30;99.90;;;;;;4879166;29;20224;-85
2021/04/15 02:19:08;;;;;;;20.50;12.83;;;1.50;99.90;;;;;;4879714;29;20174;-85
2021/04/15 02:21:56;;;;;;;20.27;13.07;;;1.50;99.90;;;;;;4880262;29;20197;-85
2021/04/15 02:24:40;;;;;;;21.10;13.10;;;1.50;99.90;;;;;;4878156;29;20195;-85
2021/04/15 02:27:28;;;;;;;22.13;14.47;;;1.50;99.90;;;;;;4878377;29;20221;-89
2021/04/15 02:30:06;;;;;;;22.00;13.50;;;1.50;99.90;;;;;;4879480;29;20240;-84
2021/04/15 02:32:38;;;;;;;25.97;16.40;;;1.50;99.90;;;;;;4879833;29;20182;-85
2021/04/15 02:35:27;;;;;;;23.83;13.70;;;1.50;99.90;;;;;;4880016;29;20172;-84
2021/04/15 02:37:57;;;;;;;25.80;14.37;;;1.50;99.90;;;;;;4894414;29;20204;-85
2021/04/15 02:40:30;;;;;;;24.23;13.87;;;1.40;99.90;;;;;;4879003;29;20178;-86
2021/04/15 02:43:03;;;;;;;24.20;14.03;;;2.50;99.90;;;;;;4879707;29;20214;-86
2021/04/15 02:45:39;;;;;;;27.30;16.00;;;1.50;99.90;;;;;;4879519;29;20277;-86
2021/04/15 02:48:13;;;;;;;27.33;15.43;;;1.50;99.90;;;;;;4878456;29;20594;-86
2021/04/15 02:50:40;;;;;;;30.57;15.10;;;1.50;99.90;;;;;;4878524;29;20189;-86
2021/04/15 02:53:17;;;;;;;26.77;15.00;;;1.50;99.90;;;;;;4893833;29;20226;-86
2021/04/15 02:56:18;;;;;;;24.17;14.27;;;1.50;99.90;;;;;;4879060;29;20217;-87
2021/04/15 02:58:49;;;;;;;22.97;13.87;;;1.50;99.90;;;;;;4875030;29;20198;-86
2021/04/15 03:01:19;;;;;;;24.53;14.27;;;2.60;99.90;;;;;;4878952;29;20753;-86
2021/04/15 03:03:49;;;;;;;29.60;15.43;;;1.60;99.90;;;;;;4877285;29;20188;-85
2021/04/15 03:06:31;;;;;;;24.37;15.23;;;1.60;99.90;;;;;;4877793;29;20209;-85
2021/04/15 03:09:01;;;;;;;26.80;14.60;;;1.60;99.90;;;;;;4878778;29;20269;-85
2021/04/15 03:11:42;;;;;;;28.13;16.73;;;2.90;99.90;;;;;;4878306;29;20178;-85
2021/04/15 03:14:12;;;;;;;30.43;15.73;;;1.60;99.90;;;;;;4878421;29;20189;-85
2021/04/15 03:16:43;;;;;;;28.47;16.33;;;1.50;99.90;;;;;;4879066;29;20221;-86
2021/04/15 03:19:17;;;;;;;30.40;15.60;;;2.20;99.90;;;;;;4879108;29;20177;-89
2021/04/15 03:21:54;;;;;;;30.87;15.93;;;1.50;99.90;;;;;;4877848;29;20234;-86
2021/04/15 03:24:38;;;;;;;30.00;15.07;;;1.50;99.90;;;;;;4878979;29;20185;-85
2021/04/15 03:27:41;;;;;;;42.63;16.00;;;1.50;99.90;;;;;;4879134;29;20186;-86
2021/04/15 03:30:21;;;;;;;31.87;16.30;;;1.50;99.90;;;;;;4877605;29;20323;-85
2021/04/15 03:33:06;;;;;;;30.83;15.83;;;1.50;99.90;;;;;;4878917;29;20658;-85
2021/04/15 03:36:06;;;;;;;39.33;16.10;;;1.50;99.90;;;;;;4878367;29;20233;-84
2021/04/15 03:38:36;;;;;;;35.30;17.23;;;1.50;99.90;;;;;;4878614;29;20259;-85
2021/04/15 03:41:13;;;;;;;36.30;17.10;;;1.60;99.90;;;;;;4882534;29;20213;-85
2021/04/15 03:43:45;;;;;;;27.20;16.13;;;1.60;99.90;;;;;;4882517;29;20639;-84
2021/04/15 03:46:23;;;;;;;29.40;16.37;;;2.90;99.90;;;;;;4881107;29;20188;-84
2021/04/15 03:49:13;;;;;;;32.57;17.60;;;1.60;99.90;;;;;;4882314;29;20222;-84
2021/04/15 03:51:44;;;;;;;34.73;18.40;;;2.50;99.90;;;;;;4881530;29;20194;-84
2021/04/15 03:54:20;;;;;;;39.47;16.73;;;1.60;99.90;;;;;;4880352;29;20182;-86
2021/04/15 03:56:52;;;;;;;36.30;17.83;;;2.60;99.90;;;;;;4880707;29;20220;-84
2021/04/15 03:59:28;;;;;;;30.80;17.30;;;1.60;99.90;;;;;;4880797;29;20281;-85
2021/04/15 04:01:57;;;;;;;29.67;16.00;;;1.80;99.90;;;;;;4882220;29;20217;-85
2021/04/15 04:04:49;;;;;;;30.80;16.60;;;2.60;99.90;;;;;;4881710;29;20273;-85
2021/04/15 04:07:23;;;;;;;28.10;16.07;;;1.60;99.90;;;;;;4883831;29;20193;-85
2021/04/15 04:09:54;;;;;;;31.93;16.47;;;2.20;99.90;;;;;;4882677;29;20183;-85
2021/04/15 04:12:45;;;;;;;26.83;15.53;;;1.60;99.90;;;;;;4881687;29;20177;-86
2021/04/15 04:15:39;;;;;;;27.50;15.93;;;3.00;99.90;;;;;;4876247;29;20220;-85
2021/04/15 04:18:09;;;;;;;42.57;17.20;;;2.60;99.90;;;;;;4880895;29;20210;-85
2021/04/15 04:20:37;;;;;;;36.40;17.10;;;1.60;99.90;;;;;;4881528;29;20256;-85
2021/04/15 04:23:24;;;;;;;33.87;18.80;;;2.80;99.90;;;;;;4882065;29;20179;-85
2021/04/15 04:26:17;;;;;;;32.80;17.83;;;1.60;99.90;;;;;;4880743;29;20674;-84
2021/04/15 04:29:02;;;;;;;33.67;16.80;;;1.60;99.90;;;;;;4880338;29;20229;-85
2021/04/15 04:31:42;;;;;;;32.07;16.60;;;1.60;99.90;;;;;;4881534;29;20179;-84
2021/04/15 04:34:09;;;;;;;33.97;16.07;;;1.60;99.90;;;;;;4881679;29;20178;-84
2021/04/15 04:36:35;;;;;;;26.67;16.30;;;2.30;99.90;;;;;;4881197;29;20227;-84
2021/04/15 04:39:04;;;;;;;29.40;15.70;;;2.50;99.90;;;;;;4880415;29;20599;-84
2021/04/15 04:41:32;;;;;;;31.40;17.40;;;1.60;99.90;;;;;;4882029;29;20180;-85
2021/04/15 04:44:03;;;;;;;29.77;15.73;;;2.00;99.90;;;;;;4882569;29;20185;-84
2021/04/15 04:46:37;;;;;;;34.43;15.73;;;1.70;99.90;;;;;;4895756;29;20194;-84
2021/04/15 04:49:22;;;;;;;34.93;17.70;;;1.70;99.90;;;;;;4879180;29;20579;-84
2021/04/15 04:52:01;;;;;;;26.77;15.90;;;2.50;99.90;;;;;;4877071;29;20558;-84
2021/04/15 04:54:28;;;;;;;30.57;16.07;;;1.70;99.90;;;;;;4892964;29;20197;-84
2021/04/15 04:57:05;;;;;;;32.97;17.30;;;1.70;99.90;;;;;;4873976;29;20300;-84
2021/04/15 04:59:35;;;;;;;33.30;16.97;;;1.80;99.90;;;;;;4875201;29;20192;-84
2021/04/15 05:02:02;;;;;;;29.00;15.67;;;1.80;99.90;;;;;;4892210;29;20238;-84
2021/04/15 05:04:33;;;;;;;26.60;15.87;;;1.80;99.90;;;;;;4879424;29;20183;-83
2021/04/15 05:07:20;;;;;;;30.27;16.73;;;2.40;99.90;;;;;;4868224;29;20980;-83
2021/04/15 05:09:46;;;;;;;34.63;17.50;;;1.80;99.90;;;;;;4878058;29;20194;-82
2021/04/15 05:12:20;;;;;;;29.50;16.87;;;2.20;99.90;;;;;;4870650;29;20190;-85
2021/04/15 05:14:46;;;;;;;33.83;17.43;;;1.80;99.90;;;;;;4876488;29;20743;-84
2021/04/15 05:17:24;;;;;;;30.87;15.73;;;2.00;99.90;;;;;;4880300;29;20241;-84
2021/04/15 05:19:50;;;;;;;28.50;16.97;;;1.80;99.90;;;;;;4896143;29;20193;-81
2021/04/15 05:22:29;;;;;;;34.93;18.17;;;1.80;99.90;;;;;;4876149;29;20188;-83
2021/04/15 05:24:59;;;;;;;31.60;16.53;;;1.80;99.90;;;;;;4877643;29;20224;-82
2021/04/15 05:27:27;;;;;;;29.90;17.33;;;1.80;99.90;;;;;;4869775;29;20216;-84
2021/04/15 05:30:12;;;;;;;28.30;16.17;;;1.80;99.90;;;;;;4877687;29;20242;-82
2021/04/15 05:32:39;;;;;;;29.67;16.97;;;1.90;99.90;;;;;;4914311;29;20190;-86
2021/04/15 05:35:05;;;;;;;28.33;16.07;;;1.90;99.90;;;;;;4898864;29;20181;-88
2021/04/15 05:37:31;;;;;;;30.47;17.47;;;2.00;99.90;;;;;;4890543;29;20203;-85
2021/04/15 05:39:57;;;;;;;26.57;15.70;;;2.00;99.90;;;;;;4886152;29;20642;-85
2021/04/15 05:42:39;;;;;;;25.00;14.60;;;2.20;99.90;;;;;;4882807;29;20750;-83
2021/04/15 05:45:21;;;;;;;27.30;14.60;;;2.00;99.90;;;;;;4882133;29;20189;-85
2021/04/15 05:47:52;;;;;;;27.93;15.60;;;2.10;99.90;;;;;;4873266;29;20674;-84
2021/04/15 05:50:24;;;;;;;32.47;16.63;;;2.10;99.90;;;;;;4879353;29;20217;-83
2021/04/15 05:52:59;;;;;;;28.40;16.27;;;2.10;99.90;;;;;;4887566;29;20206;-82
2021/04/15 05:55:32;;;;;;;24.97;14.77;;;2.20;99.90;;;;;;4882495;29;20300;-84
2021/04/15 05:58:17;;;;;;;25.00;15.17;;;2.20;99.90;;;;;;4879633;29;20194;-83
2021/04/15 06:00:49;;;;;;;27.93;16.80;;;2.30;99.90;;;;;;4899896;29;20605;-84
2021/04/15 06:03:42;;;;;;;24.27;15.07;;;2.30;99.90;;;;;;4879468;29;20249;-82
2021/04/15 06:06:12;;;;;;;25.73;15.03;;;2.30;99.90;;;;;;4882824;29;20229;-82
2021/04/15 06:08:42;;;;;;;26.87;16.13;;;2.30;99.90;;;;;;4877152;29;20185;-82
2021/04/15 06:11:51;;;;;;;27.27;15.10;;;2.30;99.90;;;;;;4893495;29;20182;-83
2021/04/15 06:14:47;;;;;;;25.70;15.93;;;2.40;99.90;;;;;;4872358;29;20281;-85
2021/04/15 06:17:31;;;;;;;28.70;14.40;;;2.30;99.90;;;;;;4878470;29;20225;-85
2021/04/15 06:20:24;;;;;;;22.90;13.50;;;2.30;99.90;;;;;;4889614;29;20189;-83
2021/04/15 06:22:56;;;;;;;23.77;14.67;;;2.40;99.90;;;;;;4872492;29;20197;-83
2021/04/15 06:25:32;;;;;;;25.80;14.73;;;2.40;99.90;;;;;;4868831;29;20692;-82
2021/04/15 06:28:28;;;;;;;22.50;14.10;;;2.50;99.90;;;;;;4873564;29;20201;-82
2021/04/15 06:30:54;;;;;;;26.50;15.53;;;2.50;99.90;;;;;;4861676;29;20258;-83
2021/04/15 06:33:20;;;;;;;25.73;14.30;;;2.50;99.90;;;;;;4883875;29;20186;-83
2021/04/15 06:35:51;;;;;;;28.90;15.07;;;3.30;99.90;;;;;;4879182;29;20703;-83
2021/04/15 06:38:41;;;;;;;28.63;15.27;;;3.60;99.90;;;;;;4876651;29;20189;-83
2021/04/15 06:41:26;;;;;;;23.23;14.60;;;2.60;99.90;;;;;;4878612;29;20662;-83
2021/04/15 06:44:04;;;;;;;24.43;14.13;;;2.60;99.90;;;;;;4879333;29;20188;-83
2021/04/15 06:46:55;;;;;;;23.47;13.57;;;2.60;99.90;;;;;;4879460;29;20177;-84
2021/04/15 06:49:27;;;;;;;23.77;13.27;;;2.60;99.90;;;;;;4879348;29;20230;-83
2021/04/15 06:52:23;;;;;;;24.30;14.50;;;2.60;99.90;;;;;;4877576;29;20284;-83
2021/04/15 06:55:07;;;;;;;23.17;14.13;;;2.60;99.90;;;;;;4858692;29;20198;-83
2021/04/15 06:58:00;;;;;;;26.50;15.67;;;2.70;99.90;;;;;;4877101;29;20198;-83
2021/04/15 07:00:28;;;;;;;22.50;13.87;;;2.70;99.90;;;;;;4878887;29;20179;-83
2021/04/15 07:03:25;;;;;;;25.03;15.00;;;2.70;99.90;;;;;;4879123;29;20652;-84
2021/04/15 07:06:01;;;;;;;21.80;13.90;;;2.70;99.90;;;;;;4879337;29;20181;-83
2021/04/15 07:09:02;;;;;;;19.53;12.80;;;2.80;99.90;;;;;;4879188;29;20264;-83
2021/04/15 07:11:46;;;;;;;23.17;14.67;;;2.80;99.90;;;;;;4867238;29;20193;-84
2021/04/15 07:14:40;;;;;;;21.03;13.73;;;2.90;99.90;;;;;;4880896;29;20234;-84
2021/04/15 07:17:25;;;;;;;23.40;14.07;;;2.80;99.90;;;;;;4880145;29;20718;-83
2021/04/15 07:20:19;;;;;;;22.67;14.47;;;2.90;99.90;;;;;;4872280;29;20264;-86
2021/04/15 07:23:03;;;;;;;24.13;14.53;;;2.90;99.90;;;;;;4874591;29;20201;-82
2021/04/15 07:25:57;;;;;;;22.23;13.50;;;2.90;99.90;;;;;;4895121;29;20191;-84
2021/04/15 07:29:19;;;;;;;23.77;14.00;;;3.00;99.90;;;;;;4871913;29;20302;-83
2021/04/15 07:32:32;;;;;;;23.97;13.97;;;2.90;99.90;;;;;;4863927;29;20232;-83
2021/04/15 07:35:17;;;;;;;23.23;13.70;;;3.00;99.90;;;;;;4860766;29;20202;-83
2021/04/15 07:37:57;;;;;;;21.37;12.67;;;3.00;99.90;;;;;;4868110;29;20581;-83
2021/04/15 07:40:32;;;;;;;18.77;11.30;;;3.10;99.90;;;;;;4878817;29;20194;-83
2021/04/15 07:43:18;;;;;;;19.83;11.63;;;3.10;99.90;;;;;;4892543;29;20193;-84
2021/04/15 07:46:23;;;;;;;19.77;11.37;;;3.10;99.90;;;;;;4876103;29;20190;-82
2021/04/15 07:49:06;;;;;;;18.00;11.83;;;3.10;99.90;;;;;;4875120;29;20191;-84
2021/04/15 07:52:17;;;;;;;16.17;11.33;;;3.20;99.90;;;;;;4875849;29;20270;-85
2021/04/15 07:55:21;;;;;;;14.40;10.30;;;3.20;99.90;;;;;;4862327;29;20214;-84
2021/04/15 07:57:49;;;;;;;15.00;10.33;;;3.20;99.90;;;;;;4876321;29;20209;-85
2021/04/15 08:00:49;;;;;;;14.17;10.17;;;4.30;99.90;;;;;;4875964;29;20276;-82
2021/04/15 08:03:57;;;;;;;17.97;11.27;;;3.20;99.90;;;;;;4878056;29;20282;-84
2021/04/15 08:07:08;;;;;;;13.70;9.53;;;3.30;99.90;;;;;;4863498;29;20206;-84
2021/04/15 08:09:45;;;;;;;13.57;10.30;;;3.30;99.90;;;;;;4844041;29;20191;-86
2021/04/15 08:12:32;;;;;;;15.10;10.30;;;3.20;99.90;;;;;;4843204;29;20200;-85
2021/04/15 08:15:25;;;;;;;14.87;9.30;;;3.20;99.90;;;;;;4856840;29;20195;-84
2021/04/15 08:18:21;;;;;;;14.07;9.10;;;3.30;99.90;;;;;;4864838;29;20193;-85
2021/04/15 08:21:29;;;;;;;14.70;9.73;;;3.40;99.90;;;;;;4871718;29;20220;-84
2021/04/15 08:24:18;;;;;;;18.33;10.07;;;3.40;99.90;;;;;;4883111;29;20198;-85
2021/04/15 08:27:21;;;;;;;12.20;9.23;;;1.30;99.90;;;;;;4880493;29;20278;-83
2021/04/15 08:30:24;;;;;;;15.93;10.77;;;3.60;99.90;;;;;;4893714;29;20229;-84
2021/04/15 08:33:11;;;;;;;16.10;11.10;;;3.50;99.90;;;;;;4897541;29;20284;-83
2021/04/15 08:36:17;;;;;;;17.90;11.97;;;3.40;99.90;;;;;;4874181;29;20689;-84
2021/04/15 08:38:57;;;;;;;18.83;11.77;;;3.60;99.90;;;;;;4845163;29;20191;-85
2021/04/15 08:42:05;;;;;;;18.87;11.10;;;3.50;99.90;;;;;;4842123;29;20183;-85
2021/04/15 08:45:21;;;;;;;17.90;10.43;;;3.40;99.90;;;;;;4865056;29;20233;-84
2021/04/15 08:48:09;;;;;;;17.47;11.57;;;3.40;99.90;;;;;;4870863;29;20204;-85
2021/04/15 08:51:02;;;;;;;19.77;11.97;;;3.40;99.90;;;;;;4880411;29;20174;-84
2021/04/15 08:53:57;;;;;;;16.33;10.17;;;3.60;99.90;;;;;;4880567;29;20723;-84
2021/04/15 08:56:45;;;;;;;17.77;10.87;;;3.40;99.90;;;;;;4879471;29;20256;-85
2021/04/15 08:59:21;;;;;;;14.90;10.47;;;3.40;99.90;;;;;;4879280;29;20571;-83
2021/04/15 09:02:24;;;;;;;14.77;9.97;;;3.40;99.90;;;;;;4881008;29;20170;-83
2021/04/15 09:05:09;;;;;;;17.13;9.93;;;3.40;99.90;;;;;;4895928;29;20186;-83
2021/04/15 09:07:43;;;;;;;16.10;9.93;;;3.40;99.90;;;;;;4880038;29;20181;-84
2021/04/15 09:10:40;;;;;;;11.93;8.50;;;3.50;99.90;;;;;;4880381;29;20188;-86
2021/04/15 09:13:24;;;;;;;11.63;8.47;;;3.60;99.90;;;;;;4880441;29;20278;-86
2021/04/15 09:16:17;;;;;;;14.93;9.80;;;3.60;99.90;;;;;;4882548;29;20677;-86
2021/04/15 09:19:10;;;;;;;13.40;9.23;;;3.70;99.90;;;;;;4881567;29;20307;-85
2021/04/15 09:22:05;;;;;;;14.30;10.30;;;3.70;99.90;;;;;;4882120;29;20183;-86
2021/04/15 09:24:42;;;;;;;15.57;9.83;;;3.70;99.90;;;;;;4882175;29;20740;-86
2021/04/15 09:27:20;;;;;;;11.50;8.47;;;3.80;99.90;;;;;;4881813;29;20186;-85
2021/04/15 09:30:24;;;;;;;13.20;9.57;;;3.90;99.90;;;;;;4881575;29;20226;-85
2021/04/15 09:32:58;;;;;;;12.77;8.90;;;3.90;99.90;;;;;;4873756;29;20201;-86
2021/04/15 09:35:52;;;;;;;13.60;8.70;;;4.00;99.90;;;;;;4880309;29;20176;-86
2021/04/15 09:38:33;;;;;;;13.20;9.20;;;4.00;99.90;;;;;;4881862;29;20592;-85
2021/04/15 09:41:35;;;;;;;12.77;8.53;;;4.00;99.90;;;;;;4883556;29;20181;-85
2021/04/15 09:44:01;;;;;;;11.77;7.90;;;4.00;99.90;;;;;;4879384;29;20185;-85
2021/04/15 09:46:52;;;;;;;12.07;9.07;;;3.90;99.90;;;;;;4880780;29;20209;-85
2021/04/15 09:49:46;;;;;;;11.50;8.57;;;3.90;99.90;;;;;;4879565;29;20186;-85
2021/04/15 09:52:34;;;;;;;14.50;8.50;;;3.90;99.90;;;;;;4878513;29;20289;-85
2021/04/15 09:55:18;;;;;;;12.47;8.50;;;3.80;99.90;;;;;;4879683;29;20173;-85
2021/04/15 09:58:09;;;;;;;16.23;7.87;;;3.90;99.90;;;;;;4887642;29;20226;-86
2021/04/15 10:00:35;;;;;;;11.23;7.93;;;4.00;99.90;;;;;;4881320;29;20667;-87
2021/04/15 10:03:38;;;;;;;13.30;8.40;;;4.10;99.90;;;;;;4882036;29;20196;-85
2021/04/15 10:06:41;;;;;;;11.70;7.60;;;4.10;99.90;;;;;;4880647;29;20276;-85
2021/04/15 10:09:26;;;;;;;14.13;8.60;;;4.20;99.90;;;;;;4874763;29;20192;-86
2021/04/15 10:12:06;;;;;;;10.80;7.97;;;4.20;99.90;;;;;;4861882;29;20245;-86
2021/04/15 10:15:02;;;;;;;13.40;7.83;;;4.20;99.90;;;;;;4861688;29;20191;-86
2021/04/15 10:18:07;;;;;;;12.90;8.37;;;4.20;99.90;;;;;;4875388;29;20279;-84
2021/04/15 10:20:59;;;;;;;11.57;7.70;;;4.10;99.90;;;;;;4877239;29;20207;-86
2021/04/15 10:23:48;;;;;;;12.83;7.63;;;4.10;99.90;;;;;;4861872;29;20203;-86
2021/04/15 10:26:41;;;;;;;12.50;8.97;;;4.20;99.90;;;;;;4888494;29;20193;-87
2021/04/15 10:29:40;;;;;;;10.90;8.03;;;4.20;99.90;;;;;;4892366;29;20292;-86
2021/04/15 10:32:16;;;;;;;12.10;8.03;;;4.20;99.90;;;;;;4875840;29;20200;-85
2021/04/15 10:35:06;;;;;;;10.00;7.50;;;4.20;99.90;;;;;;4863368;29;20182;-85
2021/04/15 10:37:50;;;;;;;11.10;8.10;;;4.30;99.90;;;;;;4874670;29;20578;-86
2021/04/15 10:40:27;;;;;;;10.10;7.87;;;4.30;99.90;;;;;;4877201;29;20182;-86
2021/04/15 10:43:12;;;;;;;12.03;7.90;;;4.30;99.90;;;;;;4880382;29;20179;-85
2021/04/15 10:46:13;;;;;;;13.23;8.60;;;4.40;99.90;;;;;;4894102;29;20244;-85
2021/04/15 10:49:02;;;;;;;11.33;8.00;;;4.40;99.90;;;;;;4895724;29;20249;-85
2021/04/15 10:51:59;;;;;;;19.57;13.57;;;4.40;99.90;;;;;;4856753;29;20564;-86
2021/04/15 10:54:26;;;;;;;18.40;11.83;;;4.50;99.90;;;;;;4874068;29;20194;-85
2021/04/15 10:57:00;;;;;;;14.60;10.27;;;4.50;99.90;;;;;;4885897;29;20215;-85
2021/04/15 10:59:33;;;;;;;15.20;9.87;;;4.60;99.90;;;;;;4898587;29;20192;-86
2021/04/15 11:02:23;;;;;;;14.03;9.90;;;4.60;99.90;;;;;;4895881;29;20193;-86
2021/04/15 11:04:50;;;;;;;13.53;9.33;;;4.60;99.90;;;;;;4884062;29;20273;-85
2021/04/15 11:07:28;;;;;;;17.87;10.87;;;4.50;99.90;;;;;;4878529;29;20192;-85
2021/04/15 11:09:57;;;;;;;14.67;9.13;;;4.50;99.90;;;;;;4878255;29;20193;-85
2021/04/15 11:12:32;;;;;;;11.27;8.23;;;4.50;99.90;;;;;;4889921;29;20251;-84
2021/04/15 11:15:33;;;;;;;14.33;9.07;;;4.60;99.90;;;;;;4893304;29;20180;-85
2021/04/15 11:18:07;;;;;;;14.33;8.77;;;4.60;99.90;;;;;;4852990;29;20231;-87
2021/04/15 11:20:35;;;;;;;11.20;7.50;;;4.70;99.90;;;;;;4878628;29;20193;-85
2021/04/15 11:23:16;;;;;;;11.03;7.73;;;4.60;99.90;;;;;;4878168;29;20333;-86
2021/04/15 11:25:47;;;;;;;11.93;8.20;;;4.60;99.90;;;;;;4889764;29;20209;-86
2021/04/15 11:28:19;;;;;;;10.87;7.30;;;4.60;99.90;;;;;;4878231;29;20201;-85
2021/04/15 11:30:51;;;;;;;12.57;8.97;;;4.60;99.90;;;;;;4878483;29;20233;-86
2021/04/15 11:33:43;;;;;;;14.17;9.60;;;4.70;99.90;;;;;;4872628;29;20193;-85
2021/04/15 11:36:16;;;;;;;11.30;8.30;;;4.70;99.90;;;;;;4867537;29;20281;-86
2021/04/15 11:38:46;;;;;;;17.10;8.97;;;4.70;99.90;;;;;;4877352;29;21342;-85
2021/04/15 11:41:22;;;;;;;13.20;8.80;;;4.60;99.90;;;;;;4873691;29;20269;-85
2021/04/15 11:43:50;;;;;;;17.33;10.17;;;4.50;99.90;;;;;;4872242;29;20190;-86
2021/04/15 11:46:32;;;;;;;17.93;10.83;;;4.50;99.90;;;;;;4872855;29;20655;-87
2021/04/15 11:49:26;;;;;;;17.70;11.33;;;4.50;99.90;;;;;;4890217;29;20591;-87
2021/04/15 11:52:12;;;;;;;18.97;12.67;;;4.50;99.90;;;;;;4874816;29;20179;-86
2021/04/15 11:55:00;;;;;;;19.13;12.03;;;4.50;99.90;;;;;;4876601;29;20178;-85
2021/04/15 11:57:34;;;;;;;17.73;11.50;;;4.60;99.90;;;;;;4892265;29;20243;-86
2021/04/15 12:00:00;;;;;;;22.43;12.80;;;4.50;99.90;;;;;;4877612;29;20185;-87
2021/04/15 12:02:30;;;;;;;20.27;13.20;;;4.50;99.90;;;;;;4881411;29;20539;-86
2021/04/15 12:05:37;;;;;;;22.20;14.27;;;4.50;99.90;;;;;;4880986;29;20240;-86
2021/04/15 12:08:17;;;;;;;19.27;12.93;;;4.70;99.90;;;;;;4874831;29;20675;-86
2021/04/15 12:10:46;;;;;;;22.67;13.43;;;4.70;99.90;;;;;;4880204;29;20182;-85
2021/04/15 12:13:56;;;;;;;22.97;13.83;;;4.60;99.90;;;;;;4881018;29;20178;-87
2021/04/15 12:16:45;;;;;;;22.63;13.53;;;4.70;99.90;;;;;;4878482;29;20243;-87
2021/04/15 12:19:48;;;;;;;23.37;14.37;;;4.70;99.90;;;;;;4895058;29;20233;-87
2021/04/15 12:22:24;;;;;;;19.77;13.23;;;4.70;99.90;;;;;;4882662;29;20183;-88
2021/04/15 12:25:02;;;;;;;22.10;13.93;;;4.70;99.90;;;;;;4884498;29;20654;-87
2021/04/15 12:27:31;;;;;;;23.77;15.53;;;4.70;99.90;;;;;;4882427;29;20187;-87
2021/04/15 12:30:22;;;;;;;22.10;14.57;;;4.70;99.90;;;;;;4883342;29;20229;-89
2021/04/15 12:33:04;;;;;;;27.83;15.53;;;4.80;99.90;;;;;;4879314;29;20641;-88
2021/04/15 12:35:42;;;;;;;24.43;14.80;;;4.80;99.90;;;;;;4882983;29;20189;-88
2021/04/15 12:38:29;;;;;;;24.43;15.33;;;4.70;99.90;;;;;;4897097;29;20215;-85
2021/04/15 12:40:58;;;;;;;25.10;15.23;;;4.70;99.90;;;;;;4879430;29;20273;-86
2021/04/15 12:43:37;;;;;;;24.00;14.13;;;4.70;99.90;;;;;;4893733;29;20189;-86
2021/04/15 12:46:10;;;;;;;19.70;12.33;;;4.80;99.90;;;;;;4893947;29;20199;-86
2021/04/15 12:48:55;;;;;;;18.83;11.43;;;4.80;99.90;;;;;;4877649;29;20662;-87
2021/04/15 12:51:29;;;;;;;15.23;10.30;;;5.00;99.90;;;;;;4895833;29;20193;-86
2021/04/15 12:53:58;;;;;;;14.43;9.80;;;4.90;99.90;;;;;;4882459;29;20252;-87
2021/04/15 12:56:53;;;;;;;16.33;9.70;;;5.20;99.90;;;;;;4883030;29;20224;-87
2021/04/15 12:59:25;;;;;;;21.42;12.00;;;5.10;99.90;;;;;;4880709;29;20433;-88
2021/04/15 13:01:51;;;;;;;19.20;12.40;;;5.10;99.90;;;;;;4883290;29;20261;-87
2021/04/15 13:04:24;;;;;;;20.00;12.97;;;5.20;99.90;;;;;;4883929;29;20728;-86
2021/04/15 13:07:14;;;;;;;19.90;10.90;;;5.10;99.90;;;;;;4882888;29;20182;-86
2021/04/15 13:09:45;;;;;;;19.13;10.83;;;5.10;99.90;;;;;;4877318;29;20193;-86
2021/04/15 13:12:20;;;;;;;17.20;11.33;;;5.00;99.90;;;;;;4866229;29;20190;-86
2021/04/15 13:14:54;;;;;;;18.83;11.10;;;5.00;99.90;;;;;;4864645;29;20238;-88
2021/04/15 13:17:34;;;;;;;14.77;9.67;;;5.10;99.90;;;;;;4863815;29;20214;-86
2021/04/15 13:20:21;;;;;;;14.67;9.77;;;5.20;99.90;;;;;;4863960;29;20288;-88
2021/04/15 13:23:07;;;;;;;14.77;10.30;;;5.20;99.90;;;;;;4855941;29;20222;-87
2021/04/15 13:25:57;;;;;;;16.10;9.90;;;5.20;99.90;;;;;;4862339;29;20198;-86
2021/04/15 13:28:46;;;;;;;15.03;9.20;;;5.20;99.90;;;;;;4866610;29;20218;-86
2021/04/15 13:31:50;;;;;;;16.30;10.33;;;5.30;99.90;;;;;;4847846;29;20214;-87
2021/04/15 13:34:20;;;;;;;17.80;11.57;;;5.30;99.90;;;;;;4895214;29;20613;-86
2021/04/15 13:36:47;;;;;;;17.73;10.73;;;5.20;99.90;;;;;;4881465;29;20262;-85
2021/04/15 13:39:39;;;;;;;18.20;11.63;;;5.20;99.90;;;;;;4879660;29;20181;-86
2021/04/15 13:42:34;;;;;;;15.73;10.17;;;5.10;99.90;;;;;;4878848;29;20226;-86
2021/04/15 13:45:04;;;;;;;20.03;12.50;;;5.20;99.90;;;;;;4878263;29;20790;-86
2021/04/15 13:47:45;;;;;;;18.10;10.97;;;5.20;99.90;;;;;;4881079;29;20204;-86
2021/04/15 13:50:16;;;;;;;20.33;11.43;;;5.20;99.90;;;;;;4883984;29;20225;-85